CCT5 weather

Public forecast

Using degrees Celsius for public forecast. Weather courtesy of forecast.io.

Closest aviation weather report (METAR) to South Brook Seaplane Base

Closest report is Deer Lake Airport, 15.0 nm (27.9 km) NE. Retrieved 2020/08/15 16:00 UTC (38 minutes ago):

CYDF 151600Z 22003KT 150V250 15SM SKC 20/04 A3022 RMK SLP237 DENSITY ALT 300FT

Closest aviation forecast (TAF) to South Brook Seaplane Base

Closest forecast is Deer Lake Airport, 15.0 nm (27.9 km) NE. Retrieved 2020/08/15 14:00 UTC (3 hours ago):

TAF CYDF 151338Z 1514/1524 VRB03KT P6SM SKC RMK NXT FCST BY 152000Z